Time;durP1;ratioP1;P1;durP2;ratioP2;P2;SDS_P1;SDS_P2;PMS_P1;PMS_P2;Temp;Humidity;BMP_temperature;BMP_pressure;BME280_temperature;BME280_humidity;BME280_pressure;Samples;Min_cycle;Max_cycle;Signal;HPM_P1;HPM_P2
2023/06/18 00:02:08;;;;;;;133.10;120.68;;;;;;;;;;4967263;28;20054;-63
2023/06/18 00:04:35;;;;;;;137.55;123.63;;;;;;;;;;4983455;28;20069;-64
2023/06/18 00:07:02;;;;;;;152.90;126.18;;;;;;;;;;4983977;28;20038;-65
2023/06/18 00:09:28;;;;;;;132.85;120.13;;;;;;;;;;4982825;28;20062;-64
2023/06/18 00:11:55;;;;;;;134.02;120.97;;;;;;;;;;4987274;28;20473;-66
2023/06/18 00:14:22;;;;;;;132.63;117.13;;;;;;;;;;4982082;28;20076;-64
2023/06/18 00:16:49;;;;;;;126.00;115.18;;;;;;;;;;4983271;28;20498;-63
2023/06/18 00:19:16;;;;;;;157.63;124.63;;;;;;;;;;4982841;28;20132;-66
2023/06/18 00:21:46;;;;;;;129.20;116.20;;;;;;;;;;4982664;28;20050;-63
2023/06/18 00:24:12;;;;;;;129.68;116.50;;;;;;;;;;4984394;28;20046;-65
2023/06/18 00:26:39;;;;;;;156.18;117.18;;;;;;;;;;4985854;28;20049;-66
2023/06/18 00:29:06;;;;;;;126.68;114.22;;;;;;;;;;4965146;28;20043;-63
2023/06/18 00:31:34;;;;;;;126.25;113.78;;;;;;;;;;4966215;28;20046;-64
2023/06/18 00:34:07;;;;;;;136.00;122.35;;;;;;;;;;4981874;28;20059;-70
2023/06/18 00:36:38;;;;;;;133.80;119.95;;;;;;;;;;4983296;28;20049;-64
2023/06/18 00:39:06;;;;;;;132.20;118.38;;;;;;;;;;4970479;28;20050;-65
2023/06/18 00:41:33;;;;;;;127.53;115.93;;;;;;;;;;4983128;28;20051;-65
2023/06/18 00:44:01;;;;;;;130.35;118.28;;;;;;;;;;4969316;28;20050;-68
2023/06/18 00:46:30;;;;;;;128.35;116.10;;;;;;;;;;4967318;28;20054;-65
2023/06/18 00:48:58;;;;;;;131.77;119.47;;;;;;;;;;4965081;28;20074;-65
2023/06/18 00:51:26;;;;;;;130.07;117.65;;;;;;;;;;4984089;28;20134;-64
2023/06/18 00:53:54;;;;;;;126.28;114.07;;;;;;;;;;4965547;28;20077;-64
2023/06/18 00:56:22;;;;;;;122.15;110.05;;;;;;;;;;4968146;28;20070;-64
2023/06/18 00:58:48;;;;;;;124.63;112.50;;;;;;;;;;4982973;28;20559;-63
2023/06/18 01:01:15;;;;;;;160.48;118.22;;;;;;;;;;4981134;28;20088;-63
2023/06/18 01:03:47;;;;;;;121.55;109.90;;;;;;;;;;4981266;28;20576;-64
2023/06/18 01:06:17;;;;;;;125.78;112.93;;;;;;;;;;4964563;28;20046;-64
2023/06/18 01:08:48;;;;;;;125.80;113.35;;;;;;;;;;4966175;28;20113;-64
2023/06/18 01:11:18;;;;;;;129.93;116.15;;;;;;;;;;4955166;28;20125;-63
2023/06/18 01:13:45;;;;;;;129.90;116.90;;;;;;;;;;4984591;28;20404;-66
2023/06/18 01:16:13;;;;;;;143.93;120.72;;;;;;;;;;4965171;28;20042;-63
2023/06/18 01:18:47;;;;;;;120.28;108.45;;;;;;;;;;4981981;28;20133;-64
2023/06/18 01:21:18;;;;;;;136.13;121.82;;;;;;;;;;4984540;28;20043;-64
2023/06/18 01:24:04;;;;;;;128.18;115.18;;;;;;;;;;4980034;28;20125;-64
2023/06/18 01:26:31;;;;;;;143.73;119.55;;;;;;;;;;4968984;28;20664;-64
2023/06/18 01:28:58;;;;;;;124.88;112.28;;;;;;;;;;4966686;28;20448;-65
2023/06/18 01:31:25;;;;;;;128.02;115.65;;;;;;;;;;4949130;28;20053;-64
2023/06/18 01:33:55;;;;;;;126.10;113.55;;;;;;;;;;4982898;28;20420;-64
2023/06/18 01:36:34;;;;;;;116.80;105.40;;;;;;;;;;4965605;28;20055;-64
2023/06/18 01:39:30;;;;;;;122.32;112.18;;;;;;;;;;4966371;28;20050;-64
2023/06/18 01:42:01;;;;;;;148.10;115.75;;;;;;;;;;4971594;28;20056;-64
2023/06/18 01:44:29;;;;;;;118.53;108.15;;;;;;;;;;4984016;28;20480;-65
2023/06/18 01:46:57;;;;;;;121.80;110.30;;;;;;;;;;4982156;28;20476;-64
2023/06/18 01:49:26;;;;;;;126.00;112.60;;;;;;;;;;4966176;28;20113;-63
2023/06/18 01:51:53;;;;;;;117.75;105.30;;;;;;;;;;4979674;28;20051;-64
2023/06/18 01:54:20;;;;;;;130.02;116.80;;;;;;;;;;4968807;28;20050;-63
2023/06/18 01:56:49;;;;;;;129.90;116.47;;;;;;;;;;4966619;28;20046;-65
2023/06/18 01:59:15;;;;;;;138.60;113.97;;;;;;;;;;4986699;28;20035;-64
2023/06/18 02:01:42;;;;;;;149.07;109.22;;;;;;;;;;4981372;28;20412;-67
2023/06/18 02:04:09;;;;;;;153.65;110.20;;;;;;;;;;4993879;28;20078;-64
2023/06/18 02:06:35;;;;;;;150.82;108.80;;;;;;;;;;4999502;28;20108;-67
2023/06/18 02:09:03;;;;;;;132.10;101.30;;;;;;;;;;4982098;28;20042;-65
2023/06/18 02:11:30;;;;;;;127.70;105.03;;;;;;;;;;4990634;28;20054;-66
2023/06/18 02:13:57;;;;;;;128.10;103.03;;;;;;;;;;5001699;28;20499;-64
2023/06/18 02:16:23;;;;;;;155.40;103.70;;;;;;;;;;4998338;28;20038;-65
2023/06/18 02:18:50;;;;;;;131.00;104.32;;;;;;;;;;4997727;28;20074;-66
2023/06/18 02:21:17;;;;;;;161.20;109.32;;;;;;;;;;4998348;28;20045;-64
2023/06/18 02:23:43;;;;;;;152.18;106.28;;;;;;;;;;4997512;28;20081;-65
2023/06/18 02:26:10;;;;;;;124.28;102.22;;;;;;;;;;4999453;28;20049;-65
2023/06/18 02:28:37;;;;;;;151.45;105.13;;;;;;;;;;5000137;28;20054;-66
2023/06/18 02:31:06;;;;;;;142.68;105.68;;;;;;;;;;4998399;28;20488;-64
2023/06/18 02:33:33;;;;;;;140.68;105.95;;;;;;;;;;4991344;28;20503;-64
2023/06/18 02:36:00;;;;;;;145.52;105.10;;;;;;;;;;4982611;28;20050;-65
2023/06/18 02:38:27;;;;;;;126.18;104.13;;;;;;;;;;5002220;28;20052;-65
2023/06/18 02:40:55;;;;;;;140.20;104.15;;;;;;;;;;4980334;28;20566;-64
2023/06/18 02:43:22;;;;;;;234.45;117.82;;;;;;;;;;5001843;28;20038;-66
2023/06/18 02:45:51;;;;;;;147.00;106.93;;;;;;;;;;4985751;28;20070;-67
2023/06/18 02:48:18;;;;;;;132.27;106.38;;;;;;;;;;4989909;28;20684;-68
2023/06/18 02:50:44;;;;;;;147.55;103.53;;;;;;;;;;4998842;28;20052;-64
2023/06/18 02:53:11;;;;;;;156.40;108.80;;;;;;;;;;4983460;28;20559;-65
2023/06/18 02:55:41;;;;;;;133.40;105.00;;;;;;;;;;5002323;28;20491;-65
2023/06/18 02:58:19;;;;;;;182.43;112.72;;;;;;;;;;4991507;28;20054;-65
2023/06/18 03:00:46;;;;;;;151.48;108.93;;;;;;;;;;4978637;28;20052;-64
2023/06/18 03:03:14;;;;;;;133.75;105.93;;;;;;;;;;5001095;28;20144;-66
2023/06/18 03:05:45;;;;;;;131.45;102.53;;;;;;;;;;4999926;28;20038;-64
2023/06/18 03:08:12;;;;;;;150.00;105.75;;;;;;;;;;4994046;28;20050;-66
2023/06/18 03:10:41;;;;;;;172.27;109.82;;;;;;;;;;5000679;28;20049;-65
2023/06/18 03:13:08;;;;;;;166.30;107.32;;;;;;;;;;5000086;28;20050;-64
2023/06/18 03:15:44;;;;;;;128.77;105.35;;;;;;;;;;4991795;28;20041;-65
2023/06/18 03:18:13;;;;;;;162.18;107.43;;;;;;;;;;5003486;28;20058;-66
2023/06/18 03:20:42;;;;;;;135.93;106.85;;;;;;;;;;4985469;28;20058;-64
2023/06/18 03:23:09;;;;;;;151.05;108.93;;;;;;;;;;4992414;28;20476;-64
2023/06/18 03:25:38;;;;;;;141.23;108.10;;;;;;;;;;4992365;28;20049;-64
2023/06/18 03:28:07;;;;;;;189.82;113.57;;;;;;;;;;5002046;28;20054;-67
2023/06/18 03:30:38;;;;;;;111.68;99.55;;;;;;;;;;5001095;28;20732;-66
2023/06/18 03:33:06;;;;;;;147.77;108.00;;;;;;;;;;5001716;28;20408;-64
2023/06/18 03:35:33;;;;;;;112.00;99.97;;;;;;;;;;4985116;28;20132;-70
2023/06/18 03:38:00;;;;;;;141.90;108.50;;;;;;;;;;5004069;28;20419;-65
2023/06/18 03:40:26;;;;;;;143.13;113.32;;;;;;;;;;4975846;28;20057;-63
2023/06/18 03:42:53;;;;;;;128.18;106.10;;;;;;;;;;4978360;28;20052;-64
2023/06/18 03:45:22;;;;;;;150.75;109.70;;;;;;;;;;5005693;28;20093;-64
2023/06/18 03:47:50;;;;;;;144.45;109.47;;;;;;;;;;5000881;28;20416;-65
2023/06/18 03:50:19;;;;;;;139.13;103.80;;;;;;;;;;4993246;28;20073;-63
2023/06/18 03:52:47;;;;;;;145.20;105.47;;;;;;;;;;5001748;28;20073;-63
2023/06/18 03:55:15;;;;;;;166.30;109.25;;;;;;;;;;4984672;28;20069;-64
2023/06/18 03:57:42;;;;;;;120.68;102.47;;;;;;;;;;4986096;28;20038;-64
2023/06/18 04:00:10;;;;;;;116.68;101.55;;;;;;;;;;4989585;28;20136;-63
2023/06/18 04:02:40;;;;;;;150.40;105.28;;;;;;;;;;5002006;28;20510;-63
2023/06/18 04:05:14;;;;;;;149.32;107.85;;;;;;;;;;5001771;28;20046;-67
2023/06/18 04:07:41;;;;;;;154.52;110.05;;;;;;;;;;4991201;28;20051;-66
2023/06/18 04:10:08;;;;;;;168.65;115.90;;;;;;;;;;5000731;28;20968;-63
2023/06/18 04:12:34;;;;;;;124.55;110.85;;;;;;;;;;4999654;28;20053;-64
2023/06/18 04:15:01;;;;;;;133.63;112.43;;;;;;;;;;5005196;28;20144;-67
2023/06/18 04:17:37;;;;;;;122.43;109.45;;;;;;;;;;4974984;28;20045;-64
2023/06/18 04:20:05;;;;;;;145.70;113.28;;;;;;;;;;5004242;28;20038;-68
2023/06/18 04:22:31;;;;;;;124.95;109.88;;;;;;;;;;5001790;28;20038;-64
2023/06/18 04:24:59;;;;;;;128.98;115.70;;;;;;;;;;5002132;28;20049;-64
2023/06/18 04:27:26;;;;;;;130.15;112.72;;;;;;;;;;4982601;28;20448;-64
2023/06/18 04:29:53;;;;;;;171.32;121.20;;;;;;;;;;5002900;28;20523;-64
2023/06/18 04:32:20;;;;;;;156.15;116.47;;;;;;;;;;5005536;28;20100;-64
2023/06/18 04:34:47;;;;;;;165.25;117.68;;;;;;;;;;4992328;28;20077;-65
2023/06/18 04:37:14;;;;;;;165.77;120.03;;;;;;;;;;5000729;28;20046;-65
2023/06/18 04:39:42;;;;;;;133.02;117.10;;;;;;;;;;5002981;28;20064;-64
2023/06/18 04:42:08;;;;;;;144.57;118.43;;;;;;;;;;4984266;28;20078;-64
2023/06/18 04:44:35;;;;;;;165.65;118.43;;;;;;;;;;4984383;28;20085;-66
2023/06/18 04:47:03;;;;;;;133.25;115.75;;;;;;;;;;4986947;28;20054;-66
2023/06/18 04:49:30;;;;;;;140.60;113.90;;;;;;;;;;4983375;28;20050;-64
2023/06/18 04:51:57;;;;;;;126.82;110.63;;;;;;;;;;4983363;28;20047;-64
2023/06/18 04:54:24;;;;;;;133.00;114.18;;;;;;;;;;4991554;28;20053;-63
2023/06/18 04:56:51;;;;;;;135.10;116.97;;;;;;;;;;4999382;28;20042;-65
2023/06/18 04:59:19;;;;;;;137.20;113.78;;;;;;;;;;4968035;28;20053;-65
2023/06/18 05:01:49;;;;;;;138.15;117.80;;;;;;;;;;5000614;28;20069;-67
2023/06/18 05:04:16;;;;;;;183.93;127.07;;;;;;;;;;4992221;28;20057;-64
2023/06/18 05:06:42;;;;;;;127.60;112.47;;;;;;;;;;4988310;28;20049;-65
2023/06/18 05:09:10;;;;;;;138.77;119.00;;;;;;;;;;4998708;28;20113;-64
2023/06/18 05:11:37;;;;;;;133.18;118.90;;;;;;;;;;4991897;28;20046;-67
2023/06/18 05:14:05;;;;;;;134.65;120.45;;;;;;;;;;5002122;28;20052;-64
2023/06/18 05:16:32;;;;;;;158.25;122.55;;;;;;;;;;4986816;28;20045;-67
2023/06/18 05:19:01;;;;;;;128.18;115.15;;;;;;;;;;4988634;28;20164;-67
2023/06/18 05:21:28;;;;;;;130.52;116.32;;;;;;;;;;4989583;28;20058;-65
2023/06/18 05:23:54;;;;;;;143.02;121.75;;;;;;;;;;4984853;28;20104;-64
2023/06/18 05:26:22;;;;;;;148.70;121.43;;;;;;;;;;4984220;28;20042;-65
2023/06/18 05:28:50;;;;;;;133.98;120.18;;;;;;;;;;4998807;28;20053;-64
2023/06/18 05:31:18;;;;;;;181.75;123.38;;;;;;;;;;4985657;28;20049;-65
2023/06/18 05:33:45;;;;;;;153.30;128.93;;;;;;;;;;4992453;28;20400;-67
2023/06/18 05:36:12;;;;;;;137.40;124.60;;;;;;;;;;4991753;28;20510;-64
2023/06/18 05:38:39;;;;;;;139.93;123.88;;;;;;;;;;4987802;28;20134;-63
2023/06/18 05:41:05;;;;;;;149.50;122.57;;;;;;;;;;4999462;28;20473;-67
2023/06/18 05:43:35;;;;;;;135.70;119.72;;;;;;;;;;5002158;28;20387;-65
2023/06/18 05:46:04;;;;;;;142.05;127.10;;;;;;;;;;4983534;28;20053;-65
2023/06/18 05:48:34;;;;;;;138.20;123.45;;;;;;;;;;5000655;28;20151;-64
2023/06/18 05:51:21;;;;;;;141.93;123.40;;;;;;;;;;5000776;28;20125;-63
2023/06/18 05:53:48;;;;;;;141.65;126.05;;;;;;;;;;5001731;28;20042;-65
2023/06/18 05:56:16;;;;;;;136.32;122.53;;;;;;;;;;5001119;28;20050;-64
2023/06/18 05:58:44;;;;;;;142.30;127.03;;;;;;;;;;4982827;28;20066;-64
2023/06/18 06:01:11;;;;;;;189.73;135.98;;;;;;;;;;4974966;28;20049;-66
2023/06/18 06:03:38;;;;;;;141.60;127.05;;;;;;;;;;5005715;28;20050;-65
2023/06/18 06:06:06;;;;;;;143.40;128.75;;;;;;;;;;4984901;28;20408;-64
2023/06/18 06:08:34;;;;;;;150.85;125.32;;;;;;;;;;4989307;28;20443;-64
2023/06/18 06:11:06;;;;;;;152.23;137.70;;;;;;;;;;4982100;28;20054;-64
2023/06/18 06:13:40;;;;;;;128.85;116.35;;;;;;;;;;5002982;28;20694;-64
2023/06/18 06:16:10;;;;;;;166.60;135.55;;;;;;;;;;4984011;28;20061;-66
2023/06/18 06:18:41;;;;;;;147.10;130.75;;;;;;;;;;5001545;28;20042;-65
2023/06/18 06:21:08;;;;;;;169.73;129.65;;;;;;;;;;4988616;28;20050;-66
2023/06/18 06:23:36;;;;;;;139.02;122.50;;;;;;;;;;5000230;28;20050;-63
2023/06/18 06:26:19;;;;;;;132.48;118.40;;;;;;;;;;4987534;28;20064;-68
2023/06/18 06:29:17;;;;;;;168.40;131.83;;;;;;;;;;4970757;28;20066;-62
2023/06/18 06:32:19;;;;;;;210.65;125.63;;;;;;;;;;5005862;28;20046;-62
2023/06/18 06:34:55;;;;;;;157.98;119.63;;;;;;;;;;5009411;28;20042;-62
2023/06/18 06:37:34;;;;;;;165.15;108.70;;;;;;;;;;5006913;28;20061;-61
2023/06/18 06:40:19;;;;;;;168.00;127.00;;;;;;;;;;4993876;28;20136;-61
2023/06/18 06:42:46;;;;;;;134.73;121.15;;;;;;;;;;4997902;28;20427;-61
2023/06/18 06:45:33;;;;;;;132.30;119.80;;;;;;;;;;4970216;28;20051;-61
2023/06/18 06:48:20;;;;;;;132.02;113.28;;;;;;;;;;4949979;28;20398;-62
2023/06/18 06:51:13;;;;;;;152.02;129.52;;;;;;;;;;4885711;29;20060;-63
2023/06/18 06:53:46;;;;;;;163.98;126.70;;;;;;;;;;4885651;29;20094;-61
2023/06/18 06:56:15;;;;;;;157.15;123.53;;;;;;;;;;4888244;29;20679;-61
2023/06/18 06:58:42;;;;;;;133.05;116.43;;;;;;;;;;4886924;29;20129;-61
2023/06/18 07:01:12;;;;;;;212.43;124.43;;;;;;;;;;4870420;29;20056;-61
2023/06/18 07:04:08;;;;;;;151.80;110.38;;;;;;;;;;4875246;29;20075;-60
2023/06/18 07:06:47;;;;;;;155.93;114.30;;;;;;;;;;4882079;29;20559;-62
2023/06/18 07:09:51;;;;;;;135.18;121.57;;;;;;;;;;4884529;29;20080;-61
2023/06/18 07:12:30;;;;;;;170.23;124.65;;;;;;;;;;4890420;29;20055;-65
2023/06/18 07:15:09;;;;;;;;;;;;;;;;;;4877454;29;20398;-63
2023/06/18 07:18:26;;;;;;;144.30;130.75;;;;;;;;;;4889181;29;20309;-60
2023/06/18 07:20:53;;;;;;;143.43;130.05;;;;;;;;;;4884415;29;20056;-60
2023/06/18 07:23:20;;;;;;;153.60;136.50;;;;;;;;;;4890672;29;20056;-62
2023/06/18 07:25:49;;;;;;;138.80;123.90;;;;;;;;;;4897948;29;20052;-62
2023/06/18 07:28:16;;;;;;;160.00;123.65;;;;;;;;;;4964208;28;20496;-60
2023/06/18 07:30:45;;;;;;;135.38;121.50;;;;;;;;;;4999052;28;20065;-60
2023/06/18 07:33:12;;;;;;;208.65;141.80;;;;;;;;;;5004522;28;20066;-61
2023/06/18 07:35:39;;;;;;;136.43;122.45;;;;;;;;;;5003410;28;20053;-60
2023/06/18 07:38:06;;;;;;;140.60;117.13;;;;;;;;;;5006026;28;20061;-59
2023/06/18 07:40:36;;;;;;;142.98;128.52;;;;;;;;;;5006502;28;20125;-63
2023/06/18 07:43:04;;;;;;;133.07;120.13;;;;;;;;;;5005281;28;20046;-60
2023/06/18 07:45:31;;;;;;;133.35;121.03;;;;;;;;;;4991744;28;20046;-61
2023/06/18 07:47:58;;;;;;;142.18;127.88;;;;;;;;;;4991195;28;20510;-61
2023/06/18 07:50:25;;;;;;;138.55;124.93;;;;;;;;;;4992144;28;20049;-61
2023/06/18 07:52:52;;;;;;;130.57;117.80;;;;;;;;;;5003716;28;20430;-60
2023/06/18 07:55:19;;;;;;;199.30;154.30;;;;;;;;;;4985058;28;20109;-59
2023/06/18 07:57:46;;;;;;;134.70;120.55;;;;;;;;;;4994609;28;20058;-64
2023/06/18 08:00:13;;;;;;;135.15;121.93;;;;;;;;;;5003501;28;20054;-60
2023/06/18 08:02:40;;;;;;;133.85;120.75;;;;;;;;;;4975771;28;20616;-61
2023/06/18 08:05:08;;;;;;;143.20;127.70;;;;;;;;;;5005335;28;20565;-63
2023/06/18 08:07:37;;;;;;;132.20;118.28;;;;;;;;;;5001317;28;20471;-62
2023/06/18 08:10:04;;;;;;;135.10;120.07;;;;;;;;;;4994460;28;20495;-61
2023/06/18 08:12:31;;;;;;;134.60;120.28;;;;;;;;;;4986179;28;20037;-62
2023/06/18 08:14:58;;;;;;;128.23;114.70;;;;;;;;;;5001154;28;20074;-61
2023/06/18 08:17:25;;;;;;;140.52;121.15;;;;;;;;;;5000528;28;20133;-66
2023/06/18 08:19:52;;;;;;;162.30;126.82;;;;;;;;;;4989359;28;20491;-62
2023/06/18 08:22:21;;;;;;;180.50;124.13;;;;;;;;;;5000144;28;20054;-64
2023/06/18 08:24:48;;;;;;;134.02;119.38;;;;;;;;;;4986451;28;20081;-63
2023/06/18 08:27:15;;;;;;;156.77;123.15;;;;;;;;;;5003687;28;20554;-60
2023/06/18 08:29:42;;;;;;;127.47;114.32;;;;;;;;;;4985757;28;20042;-62
2023/06/18 08:32:13;;;;;;;137.73;120.40;;;;;;;;;;5001925;28;20479;-61
2023/06/18 08:34:42;;;;;;;135.73;121.68;;;;;;;;;;5004443;28;20092;-61
2023/06/18 08:37:12;;;;;;;164.75;121.18;;;;;;;;;;4987830;28;20057;-64
2023/06/18 08:39:42;;;;;;;132.90;119.10;;;;;;;;;;4994660;28;20034;-60
2023/06/18 08:42:09;;;;;;;130.50;117.97;;;;;;;;;;4990650;28;20046;-61
2023/06/18 08:44:35;;;;;;;137.82;121.45;;;;;;;;;;4991142;28;20046;-62
2023/06/18 08:47:03;;;;;;;136.73;123.32;;;;;;;;;;5000300;28;20404;-61
2023/06/18 08:49:31;;;;;;;152.68;124.50;;;;;;;;;;4998608;28;20064;-61
2023/06/18 08:52:00;;;;;;;122.43;111.03;;;;;;;;;;5000444;28;20491;-62
2023/06/18 08:54:31;;;;;;;137.88;122.88;;;;;;;;;;4991073;28;20527;-62
2023/06/18 08:57:18;;;;;;;135.50;122.68;;;;;;;;;;5000035;28;20042;-60
2023/06/18 08:59:45;;;;;;;127.80;115.63;;;;;;;;;;4927675;29;20120;-62
2023/06/18 09:02:13;;;;;;;130.15;117.45;;;;;;;;;;4927365;29;20056;-61
2023/06/18 09:04:39;;;;;;;136.18;121.95;;;;;;;;;;4930234;29;20063;-62
2023/06/18 09:07:07;;;;;;;127.60;116.10;;;;;;;;;;4924093;29;20048;-62
2023/06/18 09:09:34;;;;;;;129.15;115.38;;;;;;;;;;4906939;29;20107;-64
2023/06/18 09:12:01;;;;;;;128.95;115.05;;;;;;;;;;4926373;29;20414;-64
2023/06/18 09:14:28;;;;;;;124.90;112.97;;;;;;;;;;4910151;29;20051;-62
2023/06/18 09:16:56;;;;;;;122.90;110.00;;;;;;;;;;4926073;29;20374;-63
2023/06/18 09:19:24;;;;;;;186.13;117.47;;;;;;;;;;4920567;29;20148;-65
2023/06/18 09:21:51;;;;;;;124.70;111.22;;;;;;;;;;4926595;29;20529;-62
2023/06/18 09:24:19;;;;;;;117.30;105.95;;;;;;;;;;4926839;29;20055;-60
2023/06/18 09:27:06;;;;;;;112.45;101.40;;;;;;;;;;4944095;29;20135;-62
2023/06/18 09:29:33;;;;;;;133.65;119.15;;;;;;;;;;4928005;29;20044;-62
2023/06/18 09:32:06;;;;;;;124.00;111.22;;;;;;;;;;4924414;29;20043;-60
2023/06/18 09:34:32;;;;;;;155.48;110.70;;;;;;;;;;4907526;29;20549;-65
2023/06/18 09:36:59;;;;;;;119.18;107.63;;;;;;;;;;4983649;28;20046;-61
2023/06/18 09:39:26;;;;;;;146.57;114.80;;;;;;;;;;4981966;28;20077;-61
2023/06/18 09:41:54;;;;;;;122.13;109.15;;;;;;;;;;4990327;28;20385;-62
2023/06/18 09:44:21;;;;;;;129.10;112.15;;;;;;;;;;4998479;28;20050;-61
2023/06/18 09:46:49;;;;;;;124.05;110.28;;;;;;;;;;5002190;28;20121;-63
2023/06/18 09:49:17;;;;;;;162.40;118.75;;;;;;;;;;4998450;28;20408;-62
2023/06/18 09:51:48;;;;;;;123.00;110.47;;;;;;;;;;4990017;28;20046;-64
2023/06/18 09:54:16;;;;;;;122.97;110.18;;;;;;;;;;5003135;28;20049;-63
2023/06/18 09:56:55;;;;;;;128.13;112.72;;;;;;;;;;5006492;28;20073;-65
2023/06/18 09:59:22;;;;;;;116.95;105.18;;;;;;;;;;5006730;28;20069;-64
2023/06/18 10:01:49;;;;;;;132.02;106.28;;;;;;;;;;4994302;28;20046;-65
2023/06/18 10:04:17;;;;;;;138.52;110.43;;;;;;;;;;4995868;28;20054;-62
2023/06/18 10:07:00;;;;;;;123.32;110.30;;;;;;;;;;4992657;28;20484;-62
2023/06/18 10:09:29;;;;;;;153.70;115.05;;;;;;;;;;4985843;28;20128;-61
2023/06/18 10:11:57;;;;;;;120.18;107.55;;;;;;;;;;5004669;28;20038;-64
2023/06/18 10:14:27;;;;;;;145.95;121.40;;;;;;;;;;4994502;28;20053;-62
2023/06/18 10:16:57;;;;;;;127.20;106.97;;;;;;;;;;4987552;28;20053;-62
2023/06/18 10:19:52;;;;;;;165.20;108.85;;;;;;;;;;5003036;28;20071;-67
2023/06/18 10:22:20;;;;;;;154.90;107.88;;;;;;;;;;4991649;28;20516;-66
2023/06/18 10:24:55;;;;;;;121.50;105.32;;;;;;;;;;4996552;28;20508;-60
2023/06/18 10:27:22;;;;;;;126.18;97.43;;;;;;;;;;4987447;28;20137;-60
2023/06/18 10:29:49;;;;;;;152.02;110.07;;;;;;;;;;4993797;28;20567;-63
2023/06/18 10:32:16;;;;;;;113.50;101.40;;;;;;;;;;5004223;28;20487;-60
2023/06/18 10:34:43;;;;;;;130.80;103.25;;;;;;;;;;5003833;28;20048;-56
2023/06/18 10:37:11;;;;;;;123.00;102.70;;;;;;;;;;5008997;28;20088;-62
2023/06/18 10:39:38;;;;;;;124.60;104.38;;;;;;;;;;5003810;28;20596;-61
2023/06/18 10:42:12;;;;;;;128.57;107.13;;;;;;;;;;4985356;28;20651;-61
2023/06/18 10:44:48;;;;;;;139.00;103.93;;;;;;;;;;4992917;28;20046;-62
2023/06/18 10:47:24;;;;;;;154.25;111.22;;;;;;;;;;4985960;28;20066;-61
2023/06/18 10:50:04;;;;;;;139.27;110.60;;;;;;;;;;4987021;28;20053;-60
2023/06/18 10:52:35;;;;;;;143.50;107.82;;;;;;;;;;4992883;28;20430;-62
2023/06/18 10:55:28;;;;;;;108.63;96.82;;;;;;;;;;5001372;28;20492;-60
2023/06/18 10:58:00;;;;;;;111.88;90.65;;;;;;;;;;5000067;28;20119;-63
2023/06/18 11:00:54;;;;;;;109.10;86.47;;;;;;;;;;5000642;28;20499;-61
2023/06/18 11:03:20;;;;;;;102.18;74.13;;;;;;;;;;4982312;28;20058;-62
2023/06/18 11:05:51;;;;;;;159.30;79.10;;;;;;;;;;4985528;28;20050;-61
2023/06/18 11:08:44;;;;;;;154.00;80.78;;;;;;;;;;5006309;28;20065;-62
2023/06/18 11:11:15;;;;;;;107.13;71.10;;;;;;;;;;4972150;28;20046;-62
2023/06/18 11:13:53;;;;;;;104.75;66.70;;;;;;;;;;4986015;28;20464;-63
2023/06/18 11:16:20;;;;;;;116.13;39.28;;;;;;;;;;4986161;28;20548;-63
2023/06/18 11:18:47;;;;;;;85.05;35.42;;;;;;;;;;4987469;28;20137;-63
2023/06/18 11:21:15;;;;;;;100.53;37.50;;;;;;;;;;5006288;28;20037;-60
2023/06/18 11:23:43;;;;;;;139.77;96.93;;;;;;;;;;5000264;28;20049;-62
2023/06/18 11:26:16;;;;;;;136.68;87.90;;;;;;;;;;4983894;28;20050;-65
2023/06/18 11:28:43;;;;;;;;;;;;;;;;;;4971892;28;20137;-63
2023/06/18 11:31:10;;;;;;;116.95;80.35;;;;;;;;;;4994290;28;19926;-66
2023/06/18 11:33:38;;;;;;;146.88;83.88;;;;;;;;;;5002594;28;20407;-63
2023/06/18 11:36:07;;;;;;;177.45;72.88;;;;;;;;;;4992770;28;20096;-63
2023/06/18 11:38:35;;;;;;;82.20;48.65;;;;;;;;;;4992393;28;20093;-67
2023/06/18 11:41:02;;;;;;;75.78;44.63;;;;;;;;;;4983949;28;20052;-63
2023/06/18 11:43:45;;;;;;;122.72;55.58;;;;;;;;;;4984777;28;20521;-63
2023/06/18 11:46:12;;;;;;;;;;;;;;;;;;5000190;28;20121;-64
2023/06/18 11:48:38;;;;;;;92.57;43.15;;;;;;;;;;5006603;28;19921;-64
2023/06/18 11:51:05;;;;;;;115.38;31.83;;;;;;;;;;5003994;28;20050;-67
2023/06/18 11:53:33;;;;;;;69.28;25.58;;;;;;;;;;4995683;28;20117;-64
2023/06/18 11:55:59;;;;;;;37.55;18.15;;;;;;;;;;5003130;28;20116;-63
2023/06/18 11:58:26;;;;;;;88.70;21.90;;;;;;;;;;5003223;28;20515;-63
2023/06/18 12:00:56;;;;;;;62.65;18.95;;;;;;;;;;4995813;28;20052;-64
2023/06/18 12:03:23;;;;;;;47.53;17.73;;;;;;;;;;5004423;28;20132;-64
2023/06/18 12:05:50;;;;;;;43.88;18.30;;;;;;;;;;5000962;28;20105;-64
2023/06/18 12:08:16;;;;;;;55.20;19.05;;;;;;;;;;5006393;28;20045;-65
2023/06/18 12:10:43;;;;;;;57.38;28.10;;;;;;;;;;5009361;28;20049;-63
2023/06/18 12:13:28;;;;;;;57.63;24.35;;;;;;;;;;4993110;28;20037;-65
2023/06/18 12:16:02;;;;;;;44.70;19.50;;;;;;;;;;5020747;28;20049;-56
2023/06/18 12:18:41;;;;;;;49.40;21.55;;;;;;;;;;5007505;28;20046;-64
2023/06/18 12:21:08;;;;;;;64.22;25.13;;;;;;;;;;4992325;28;20508;-64
2023/06/18 12:23:38;;;;;;;53.53;20.10;;;;;;;;;;4995393;28;20133;-65
2023/06/18 12:26:05;;;;;;;43.67;20.17;;;;;;;;;;4993460;28;20574;-64
2023/06/18 12:28:33;;;;;;;54.53;21.30;;;;;;;;;;5003783;28;20038;-63
2023/06/18 12:31:07;;;;;;;33.05;16.77;;;;;;;;;;5003890;28;20054;-63
2023/06/18 12:33:44;;;;;;;47.53;19.05;;;;;;;;;;4989045;28;20077;-64
2023/06/18 12:36:11;;;;;;;42.80;20.95;;;;;;;;;;5004828;28;20129;-65
2023/06/18 12:38:38;;;;;;;80.82;26.65;;;;;;;;;;5007873;28;20048;-63
2023/06/18 12:41:05;;;;;;;57.50;27.10;;;;;;;;;;5000562;28;20045;-63
2023/06/18 12:43:38;;;;;;;68.97;31.45;;;;;;;;;;4984264;28;20111;-65
2023/06/18 12:46:04;;;;;;;54.67;30.38;;;;;;;;;;4984738;28;20471;-63
2023/06/18 12:48:36;;;;;;;388.27;360.75;;;;;;;;;;4989754;28;20046;-64
2023/06/18 12:51:03;;;;;;;321.50;299.58;;;;;;;;;;5002375;28;20392;-60
2023/06/18 12:53:30;;;;;;;305.33;279.60;;;;;;;;;;4998893;28;20094;-64
2023/06/18 12:55:57;;;;;;;140.27;127.82;;;;;;;;;;5004115;28;20038;-64
2023/06/18 12:58:25;;;;;;;127.82;114.50;;;;;;;;;;5000224;28;20625;-67
2023/06/18 13:00:53;;;;;;;113.00;99.28;;;;;;;;;;5000735;28;20042;-65
2023/06/18 13:03:21;;;;;;;106.07;94.53;;;;;;;;;;4991660;28;20046;-66
2023/06/18 13:05:49;;;;;;;104.82;94.70;;;;;;;;;;5001960;28;20041;-62
2023/06/18 13:08:17;;;;;;;112.55;101.10;;;;;;;;;;5003363;28;20042;-59
2023/06/18 13:10:49;;;;;;;113.00;101.22;;;;;;;;;;5002256;28;20395;-59
2023/06/18 13:13:19;;;;;;;131.18;107.03;;;;;;;;;;4994007;28;20411;-57
2023/06/18 13:15:46;;;;;;;113.32;102.35;;;;;;;;;;4992334;28;20057;-64
2023/06/18 13:18:14;;;;;;;119.85;108.22;;;;;;;;;;5002611;28;20066;-63
2023/06/18 13:20:41;;;;;;;134.13;122.28;;;;;;;;;;5002234;28;20042;-64
2023/06/18 13:23:09;;;;;;;137.70;125.25;;;;;;;;;;5003215;28;20117;-64
2023/06/18 13:25:35;;;;;;;144.65;131.35;;;;;;;;;;5001727;28;20402;-59
2023/06/18 13:28:02;;;;;;;145.80;130.93;;;;;;;;;;5003453;28;20129;-62
2023/06/18 13:30:31;;;;;;;85.40;77.43;;;;;;;;;;4991343;28;20045;-61
2023/06/18 13:32:58;;;;;;;88.03;74.55;;;;;;;;;;5001077;28;20395;-60
2023/06/18 13:35:26;;;;;;;102.93;65.68;;;;;;;;;;5001779;28;20046;-63
2023/06/18 13:37:52;;;;;;;135.88;123.10;;;;;;;;;;5002029;28;20133;-62
2023/06/18 13:40:19;;;;;;;140.98;114.50;;;;;;;;;;5003022;28;20118;-63
2023/06/18 13:42:46;;;;;;;130.25;117.35;;;;;;;;;;4996474;28;20034;-66
2023/06/18 13:45:13;;;;;;;142.38;115.90;;;;;;;;;;5008106;28;20042;-66
2023/06/18 13:47:40;;;;;;;114.82;102.50;;;;;;;;;;5003385;28;20053;-66
2023/06/18 13:50:07;;;;;;;107.18;96.00;;;;;;;;;;4992379;28;20077;-61
2023/06/18 13:52:33;;;;;;;107.57;95.97;;;;;;;;;;5001601;28;20419;-61
2023/06/18 13:55:00;;;;;;;105.97;95.90;;;;;;;;;;5006994;28;20459;-60
2023/06/18 13:57:27;;;;;;;114.93;99.32;;;;;;;;;;5001436;28;20097;-63
2023/06/18 13:59:54;;;;;;;109.70;100.55;;;;;;;;;;4999981;28;20038;-60
2023/06/18 14:02:21;;;;;;;114.35;102.72;;;;;;;;;;4991259;28;20372;-61
2023/06/18 14:04:49;;;;;;;113.13;102.53;;;;;;;;;;4999695;28;20088;-64
2023/06/18 14:07:16;;;;;;;130.27;93.18;;;;;;;;;;4999603;28;20049;-63
2023/06/18 14:09:43;;;;;;;87.38;78.63;;;;;;;;;;5004050;28;20046;-62
2023/06/18 14:12:10;;;;;;;75.43;67.97;;;;;;;;;;5000082;28;20046;-62